Time;durP1;ratioP1;P1;durP2;ratioP2;P2;SDS_P1;SDS_P2;PMS_P1;PMS_P2;Temp;Humidity;BMP_temperature;BMP_pressure;BME280_temperature;BME280_humidity;BME280_pressure;Samples;Min_cycle;Max_cycle;Signal;HPM_P1;HPM_P2
2024/03/08 00:01:25;;;;;;;6.53;2.50;;;;;;;0.57;88.92;101895.47;5075674;28;20575;-69
2024/03/08 00:03:52;;;;;;;5.97;2.03;;;;;;;0.57;88.16;101898.13;5075173;28;20547;-69
2024/03/08 00:06:19;;;;;;;2.57;1.13;;;;;;;0.57;88.38;101890.94;5075515;28;20442;-69
2024/03/08 00:08:45;;;;;;;4.53;1.80;;;;;;;0.54;88.47;101890.56;5075330;28;20500;-69
2024/03/08 00:11:13;;;;;;;5.57;3.70;;;;;;;0.55;88.40;101887.69;5075410;28;20523;-70
2024/03/08 00:13:40;;;;;;;3.20;1.63;;;;;;;0.53;88.66;101886.22;5075385;28;20461;-69
2024/03/08 00:16:09;;;;;;;5.70;2.47;;;;;;;0.48;88.77;101881.50;5075072;28;20926;-69
2024/03/08 00:18:35;;;;;;;3.17;1.30;;;;;;;0.42;88.58;101883.13;5074958;28;20578;-69
2024/03/08 00:21:02;;;;;;;6.93;2.50;;;;;;;0.37;89.10;101884.78;5074933;28;20437;-69
2024/03/08 00:23:29;;;;;;;2.90;1.73;;;;;;;0.40;89.57;101890.53;5074868;28;20553;-69
2024/03/08 00:25:55;;;;;;;4.87;2.10;;;;;;;0.37;90.09;101890.91;5074798;28;20433;-69
2024/03/08 00:28:24;;;;;;;3.50;1.80;;;;;;;0.38;90.29;101886.41;5074690;28;20477;-69
2024/03/08 00:30:51;;;;;;;3.70;2.00;;;;;;;0.42;89.82;101884.97;5074809;28;20507;-69
2024/03/08 00:33:18;;;;;;;10.17;2.37;;;;;;;0.46;90.24;101891.56;5074930;28;20540;-69
2024/03/08 00:35:44;;;;;;;8.43;2.13;;;;;;;0.49;89.78;101883.16;5074438;28;20788;-69
2024/03/08 00:38:11;;;;;;;2.80;1.33;;;;;;;0.39;90.87;101877.38;5074173;28;20433;-69
2024/03/08 00:40:37;;;;;;;3.63;1.10;;;;;;;0.41;90.82;101878.03;5074902;28;20530;-69
2024/03/08 00:43:04;;;;;;;3.70;2.13;;;;;;;0.44;90.24;101880.25;5074407;28;20465;-69
2024/03/08 00:45:32;;;;;;;4.27;2.37;;;;;;;0.49;90.21;101877.84;5074736;28;20510;-69
2024/03/08 00:47:59;;;;;;;4.17;2.70;;;;;;;0.47;90.76;101874.53;5074352;28;20517;-69
2024/03/08 00:50:26;;;;;;;3.73;2.97;;;;;;;0.43;90.75;101879.44;5074346;28;20437;-69
2024/03/08 00:52:52;;;;;;;4.90;3.47;;;;;;;0.44;90.92;101877.59;5074237;28;20461;-69
2024/03/08 00:55:19;;;;;;;8.20;3.00;;;;;;;0.38;89.59;101875.75;5074730;28;20852;-69
2024/03/08 00:57:46;;;;;;;2.33;1.07;;;;;;;0.31;89.54;101874.91;5074817;28;20470;-69
2024/03/08 01:00:13;;;;;;;8.60;2.83;;;;;;;0.24;89.68;101875.72;5074741;28;20441;-69
2024/03/08 01:02:41;;;;;;;4.20;2.13;;;;;;;0.12;88.70;101865.81;5074733;28;20512;-69
2024/03/08 01:05:09;;;;;;;2.73;1.20;;;;;;;0.12;89.08;101871.16;5074601;28;20523;-70
2024/03/08 01:07:36;;;;;;;5.77;3.30;;;;;;;0.19;88.73;101862.16;5074844;28;20441;-70
2024/03/08 01:10:03;;;;;;;2.53;1.80;;;;;;;0.17;89.39;101861.53;5074682;28;20528;-70
2024/03/08 01:12:30;;;;;;;3.23;1.67;;;;;;;0.10;88.71;101868.69;5073883;28;21045;-70
2024/03/08 01:14:57;;;;;;;2.17;1.23;;;;;;;0.04;89.54;101864.16;5074945;28;20437;-70
2024/03/08 01:17:24;;;;;;;2.80;1.90;;;;;;;0.16;89.66;101851.09;5074810;28;20445;-70
2024/03/08 01:19:53;;;;;;;3.10;1.40;;;;;;;0.04;90.26;101852.69;5074574;28;20476;-70
2024/03/08 01:22:19;;;;;;;3.83;2.10;;;;;;;0.09;89.68;101853.75;5087603;22;20516;-69
2024/03/08 01:24:46;;;;;;;4.00;1.67;;;;;;;0.07;89.87;101846.97;5073690;28;20480;-69
2024/03/08 01:27:13;;;;;;;7.03;3.10;;;;;;;0.04;89.40;101847.34;5073751;28;20457;-69
2024/03/08 01:29:39;;;;;;;6.13;2.50;;;;;;;0.04;90.23;101839.38;5073603;28;20476;-69
2024/03/08 01:32:06;;;;;;;6.70;3.20;;;;;;;-0.03;89.94;101834.84;5073308;28;20540;-72
2024/03/08 01:34:33;;;;;;;9.10;2.80;;;;;;;-0.09;90.55;101838.31;5073694;28;20456;-72
2024/03/08 01:37:01;;;;;;;7.50;2.30;;;;;;;-0.03;90.54;101840.19;5073623;28;20448;-72
2024/03/08 01:39:27;;;;;;;4.10;1.77;;;;;;;-0.03;90.01;101831.38;5073566;28;20524;-72
2024/03/08 01:41:55;;;;;;;3.40;1.70;;;;;;;-0.07;90.68;101832.78;5073641;28;20848;-72
2024/03/08 01:44:22;;;;;;;8.00;2.17;;;;;;;-0.10;91.28;101820.69;5073380;28;20541;-72
2024/03/08 01:46:51;;;;;;;2.03;0.63;;;;;;;-0.04;91.14;101824.41;5073926;28;20437;-69
2024/03/08 01:49:18;;;;;;;5.20;3.90;;;;;;;-0.01;90.36;101819.47;5073952;28;20562;-69
2024/03/08 01:51:45;;;;;;;5.70;2.17;;;;;;;0.00;90.07;101809.69;5073372;28;20781;-71
2024/03/08 01:54:15;;;;;;;4.90;1.83;;;;;;;-0.07;91.17;101808.81;5073120;28;20457;-71
2024/03/08 01:56:41;;;;;;;7.53;1.07;;;;;;;-0.05;91.33;101801.44;5073414;28;20448;-71
2024/03/08 01:59:08;;;;;;;5.17;2.80;;;;;;;-0.09;92.05;101806.38;5073435;28;20433;-72
2024/03/08 02:01:35;;;;;;;5.60;1.87;;;;;;;-0.08;91.94;101808.00;5073018;28;20861;-71
2024/03/08 02:04:02;;;;;;;8.20;4.37;;;;;;;-0.09;92.17;101805.53;5073492;28;20549;-71
2024/03/08 02:06:29;;;;;;;4.17;2.60;;;;;;;-0.08;91.93;101804.53;5073649;28;20532;-72
2024/03/08 02:08:56;;;;;;;4.17;2.10;;;;;;;-0.11;92.12;101799.59;5073075;28;21038;-70
2024/03/08 02:11:24;;;;;;;2.97;1.20;;;;;;;-0.17;92.71;101798.56;5073281;28;20433;-73
2024/03/08 02:13:50;;;;;;;13.03;1.57;;;;;;;-0.21;92.88;101796.50;5073210;28;20449;-71
2024/03/08 02:16:22;;;;;;;4.67;1.60;;;;;;;-0.21;91.86;101801.81;5073605;28;20520;-71
2024/03/08 02:18:49;;;;;;;2.20;1.37;;;;;;;-0.21;91.37;101797.31;5073495;28;20417;-71
2024/03/08 02:21:19;;;;;;;10.50;2.93;;;;;;;-0.23;90.45;101794.00;5073243;28;21017;-71
2024/03/08 02:23:45;;;;;;;2.73;1.97;;;;;;;-0.29;89.88;101790.31;5074016;28;20469;-71
2024/03/08 02:26:12;;;;;;;9.80;3.50;;;;;;;-0.34;90.60;101792.75;5077180;28;20528;-71
2024/03/08 02:28:42;;;;;;;4.17;2.70;;;;;;;-0.40;91.73;101793.56;5077564;28;20481;-71
2024/03/08 02:31:09;;;;;;;2.23;0.93;;;;;;;-0.45;91.26;101790.66;5076832;28;20426;-71
2024/03/08 02:33:36;;;;;;;5.53;2.10;;;;;;;-0.48;90.32;101780.41;5077475;28;20467;-71
2024/03/08 02:36:03;;;;;;;3.53;1.63;;;;;;;-0.36;90.39;101789.44;5077200;28;20464;-71
2024/03/08 02:38:31;;;;;;;2.30;1.53;;;;;;;-0.28;90.62;101791.13;5077351;28;20491;-71
2024/03/08 02:40:57;;;;;;;2.83;1.60;;;;;;;-0.34;91.51;101787.44;5077057;28;20440;-71
2024/03/08 02:43:24;;;;;;;5.63;2.20;;;;;;;-0.33;91.30;101782.91;5076707;28;20511;-71
2024/03/08 02:45:52;;;;;;;2.43;0.70;;;;;;;-0.31;91.02;101787.03;5077045;28;20523;-71
2024/03/08 02:48:20;;;;;;;3.40;0.80;;;;;;;-0.36;91.78;101773.47;5076695;28;20441;-71
2024/03/08 02:50:47;;;;;;;5.40;2.47;;;;;;;-0.44;91.13;101779.00;5076907;28;20437;-71
2024/03/08 02:53:14;;;;;;;5.17;2.70;;;;;;;-0.56;90.61;101770.75;5076376;28;21056;-71
2024/03/08 02:55:43;;;;;;;3.23;1.97;;;;;;;-0.62;90.88;101768.03;5077023;28;20524;-72
2024/03/08 02:58:10;;;;;;;5.83;2.73;;;;;;;-0.57;91.48;101773.63;5076562;28;20875;-71
2024/03/08 03:00:38;;;;;;;2.30;1.00;;;;;;;-0.46;91.73;101773.03;5076890;28;20428;-71
2024/03/08 03:03:06;;;;;;;3.57;1.87;;;;;;;-0.49;92.03;101768.09;5076428;28;20469;-71
2024/03/08 03:05:33;;;;;;;5.97;2.80;;;;;;;-0.53;91.45;101769.56;5076676;28;20490;-71
2024/03/08 03:08:00;;;;;;;7.30;2.73;;;;;;;-0.54;90.51;101770.53;5076152;28;20949;-71
2024/03/08 03:10:26;;;;;;;4.60;2.50;;;;;;;-0.61;90.37;101767.88;5076935;28;20491;-71
2024/03/08 03:12:54;;;;;;;1.90;1.13;;;;;;;-0.63;90.32;101761.91;5076288;28;20977;-71
2024/03/08 03:15:21;;;;;;;3.03;2.20;;;;;;;-0.64;90.62;101770.09;5076203;28;20439;-71
2024/03/08 03:17:50;;;;;;;2.00;0.70;;;;;;;-0.66;91.03;101769.50;5076298;28;20491;-71
2024/03/08 03:20:22;;;;;;;2.23;1.30;;;;;;;-0.64;90.64;101762.13;5076187;28;20446;-70
2024/03/08 03:22:51;;;;;;;4.07;1.50;;;;;;;-0.63;91.07;101766.41;5075882;28;20560;-70
2024/03/08 03:25:23;;;;;;;3.37;2.30;;;;;;;-0.67;92.22;101770.47;5076425;28;20503;-70
2024/03/08 03:27:50;;;;;;;2.13;0.90;;;;;;;-0.73;92.57;101763.31;5076287;28;20944;-70
2024/03/08 03:30:26;;;;;;;8.00;3.40;;;;;;;-0.76;92.16;101761.84;5076269;28;20508;-70
2024/03/08 03:32:54;;;;;;;8.03;1.60;;;;;;;-0.78;93.20;101761.22;5075767;28;20842;-70
2024/03/08 03:35:21;;;;;;;2.43;1.27;;;;;;;-0.73;93.77;101756.13;5075530;28;20451;-70
2024/03/08 03:38:01;;;;;;;3.53;2.20;;;;;;;-0.74;94.23;101759.00;5076085;28;20439;-70
2024/03/08 03:40:28;;;;;;;2.70;1.20;;;;;;;-0.70;94.09;101752.28;5075661;28;20417;-70
2024/03/08 03:42:54;;;;;;;2.70;1.97;;;;;;;-0.72;94.13;101752.44;5075384;28;20986;-71
2024/03/08 03:45:22;;;;;;;3.70;1.93;;;;;;;-0.66;94.42;101757.00;5075677;28;20437;-72
2024/03/08 03:47:49;;;;;;;3.57;1.70;;;;;;;-0.65;94.35;101755.97;5075644;28;20525;-72
2024/03/08 03:50:16;;;;;;;3.93;1.80;;;;;;;-0.68;94.68;101758.22;5075505;28;20615;-72
2024/03/08 03:52:42;;;;;;;2.67;1.73;;;;;;;-0.71;94.53;101759.41;5075543;28;20493;-72
2024/03/08 03:55:11;;;;;;;6.27;2.33;;;;;;;-0.71;94.57;101762.06;5075486;28;20442;-72
2024/03/08 03:57:38;;;;;;;11.33;3.57;;;;;;;-0.71;93.09;101759.41;5075431;28;20533;-72
2024/03/08 04:00:06;;;;;;;3.67;2.00;;;;;;;-0.72;93.22;101751.63;5075076;28;20437;-72
2024/03/08 04:02:34;;;;;;;3.30;1.07;;;;;;;-0.72;93.13;101754.28;5075435;28;20464;-71
2024/03/08 04:05:01;;;;;;;2.10;1.07;;;;;;;-0.78;92.62;101755.91;5075554;28;20532;-71
2024/03/08 04:07:28;;;;;;;3.30;1.33;;;;;;;-0.73;91.45;101757.97;5074893;28;20476;-71
2024/03/08 04:09:55;;;;;;;4.03;1.00;;;;;;;-0.70;91.15;101754.94;5075086;28;20495;-71
2024/03/08 04:12:22;;;;;;;2.53;1.50;;;;;;;-0.80;90.96;101756.13;5075589;28;20540;-71
2024/03/08 04:14:49;;;;;;;2.93;1.50;;;;;;;-0.80;90.78;101744.63;5074968;28;20830;-71
2024/03/08 04:17:16;;;;;;;4.63;1.20;;;;;;;-0.76;91.36;101757.34;5075368;28;20437;-71
2024/03/08 04:19:44;;;;;;;1.93;0.70;;;;;;;-0.90;91.46;101746.84;5075037;28;20441;-72
2024/03/08 04:22:10;;;;;;;2.43;1.77;;;;;;;-1.08;91.85;101748.16;5074583;28;20859;-69
2024/03/08 04:24:37;;;;;;;6.37;2.47;;;;;;;-1.03;92.08;101747.59;5075007;28;20445;-68
2024/03/08 04:27:04;;;;;;;1.90;0.60;;;;;;;-0.99;92.94;101750.69;5075129;28;20438;-70
2024/03/08 04:29:32;;;;;;;3.50;1.67;;;;;;;-1.12;92.28;101748.75;5074741;28;20484;-71
2024/03/08 04:31:59;;;;;;;5.20;3.50;;;;;;;-1.13;92.66;101745.28;5074707;28;20442;-72
2024/03/08 04:34:27;;;;;;;2.17;0.87;;;;;;;-1.17;93.22;101753.84;5075007;28;20524;-71
2024/03/08 04:36:57;;;;;;;8.80;3.00;;;;;;;-1.10;93.65;101754.72;5074670;28;20488;-71
2024/03/08 04:39:24;;;;;;;2.30;1.23;;;;;;;-1.07;93.55;101754.31;5074959;28;20483;-71
2024/03/08 04:41:51;;;;;;;4.33;1.90;;;;;;;-1.15;91.78;101752.63;5074876;28;20518;-71
2024/03/08 04:44:18;;;;;;;4.63;2.63;;;;;;;-1.17;91.54;101746.69;5074218;28;20476;-71
2024/03/08 04:46:45;;;;;;;9.37;2.70;;;;;;;-1.18;91.20;101745.03;5074150;28;20434;-71
2024/03/08 04:49:13;;;;;;;3.07;1.47;;;;;;;-1.20;91.17;101743.59;5074430;28;20578;-72
2024/03/08 04:51:40;;;;;;;2.67;1.57;;;;;;;-1.21;91.18;101739.28;5074732;28;20507;-71
2024/03/08 04:54:08;;;;;;;3.17;1.70;;;;;;;-1.30;91.12;101742.09;5074572;28;20532;-71
2024/03/08 04:56:34;;;;;;;5.23;1.50;;;;;;;-1.21;91.77;101736.63;5074197;28;20476;-71
2024/03/08 04:59:01;;;;;;;2.57;0.93;;;;;;;-1.23;92.29;101736.84;5074230;28;20484;-71
2024/03/08 05:01:28;;;;;;;3.00;1.43;;;;;;;-1.13;92.69;101739.16;5073848;28;20433;-71
2024/03/08 05:03:55;;;;;;;1.90;1.10;;;;;;;-1.13;93.67;101736.47;5074366;28;20556;-71
2024/03/08 05:06:23;;;;;;;1.70;0.70;;;;;;;-1.11;93.37;101732.59;5074069;28;20846;-71
2024/03/08 05:08:49;;;;;;;9.03;1.63;;;;;;;-1.05;93.29;101736.34;5074055;28;20941;-72
2024/03/08 05:11:18;;;;;;;2.80;1.30;;;;;;;-0.99;92.94;101735.53;5074274;28;20476;-71
2024/03/08 05:13:45;;;;;;;2.40;0.87;;;;;;;-1.10;92.24;101738.75;5073524;28;20464;-71
2024/03/08 05:16:11;;;;;;;6.23;2.27;;;;;;;-1.11;92.47;101743.22;5073970;28;20489;-71
2024/03/08 05:18:38;;;;;;;4.03;1.63;;;;;;;-1.17;92.84;101740.53;5073652;28;20814;-70
2024/03/08 05:21:05;;;;;;;3.80;1.10;;;;;;;-1.16;92.75;101734.19;5074248;28;20457;-70
2024/03/08 05:23:31;;;;;;;3.53;1.83;;;;;;;-1.17;92.74;101725.41;5073426;28;20683;-71
2024/03/08 05:25:58;;;;;;;2.20;1.27;;;;;;;-1.03;92.69;101735.09;5074025;28;20516;-71
2024/03/08 05:28:26;;;;;;;2.10;1.10;;;;;;;-1.00;93.09;101727.78;5074026;28;20455;-72
2024/03/08 05:30:53;;;;;;;5.17;2.57;;;;;;;-1.04;92.10;101728.16;5073445;28;21091;-71
2024/03/08 05:33:19;;;;;;;3.07;2.17;;;;;;;-1.07;92.28;101739.16;5073890;28;20852;-71
2024/03/08 05:35:46;;;;;;;4.47;1.63;;;;;;;-1.08;92.81;101731.41;5074173;28;20827;-71
2024/03/08 05:38:12;;;;;;;5.37;2.53;;;;;;;-1.03;93.48;101728.97;5073642;28;20533;-71
2024/03/08 05:40:39;;;;;;;3.80;1.53;;;;;;;-0.88;92.67;101723.53;5073601;28;20893;-71
2024/03/08 05:43:06;;;;;;;2.47;1.53;;;;;;;-0.94;93.79;101719.00;5073547;28;20806;-71
2024/03/08 05:45:34;;;;;;;5.07;2.20;;;;;;;-0.92;94.25;101715.13;5073209;28;20452;-71
2024/03/08 05:48:01;;;;;;;2.57;1.47;;;;;;;-0.91;95.22;101721.28;5073736;28;20443;-71
2024/03/08 05:50:27;;;;;;;9.73;2.40;;;;;;;-0.94;95.74;101717.16;5073709;28;20481;-71
2024/03/08 05:52:54;;;;;;;2.23;1.30;;;;;;;-0.88;96.14;101723.53;5073550;28;20544;-71
2024/03/08 05:55:21;;;;;;;2.80;1.43;;;;;;;-0.81;95.69;101722.53;5073416;28;20519;-70
2024/03/08 05:57:48;;;;;;;4.07;1.53;;;;;;;-0.85;96.65;101721.28;5073349;28;20810;-71
2024/03/08 06:00:15;;;;;;;1.80;0.87;;;;;;;-0.85;97.36;101715.97;5073124;28;20933;-71
2024/03/08 06:02:43;;;;;;;8.20;3.10;;;;;;;-0.79;97.64;101731.16;5073606;28;20544;-70
2024/03/08 06:05:11;;;;;;;4.13;1.33;;;;;;;-0.74;97.86;101724.44;5073347;28;20489;-70
2024/03/08 06:07:40;;;;;;;2.00;0.73;;;;;;;-0.67;97.87;101727.91;5073697;28;20452;-70
2024/03/08 06:10:09;;;;;;;4.10;2.23;;;;;;;-0.59;97.70;101733.06;5073651;28;20477;-71
2024/03/08 06:12:39;;;;;;;3.97;2.00;;;;;;;-0.62;96.65;101728.13;5073573;28;20465;-71
2024/03/08 06:15:07;;;;;;;4.10;2.53;;;;;;;-0.64;96.51;101728.34;5073492;28;20452;-71
2024/03/08 06:17:34;;;;;;;3.40;1.40;;;;;;;-0.63;96.51;101732.66;5073331;28;20437;-70
2024/03/08 06:20:02;;;;;;;3.73;2.20;;;;;;;-0.65;95.54;101731.22;5073260;28;20445;-71
2024/03/08 06:22:30;;;;;;;6.43;2.73;;;;;;;-0.58;95.14;101727.53;5072969;28;20557;-71
2024/03/08 06:24:57;;;;;;;2.43;1.13;;;;;;;-0.49;94.19;101727.38;5073196;28;20522;-71
2024/03/08 06:27:23;;;;;;;3.70;2.17;;;;;;;-0.57;93.86;101733.72;5072857;28;20442;-71
2024/03/08 06:29:50;;;;;;;12.23;3.90;;;;;;;-0.46;94.14;101725.13;5072842;28;20520;-72
2024/03/08 06:32:16;;;;;;;2.20;1.53;;;;;;;-0.36;94.23;101738.88;5073694;28;20542;-72
2024/03/08 06:34:43;;;;;;;2.00;1.03;;;;;;;-0.41;94.04;101732.53;5072708;28;20469;-72
2024/03/08 06:37:11;;;;;;;5.40;2.40;;;;;;;-0.39;94.44;101741.97;5072792;28;20963;-72
2024/03/08 06:39:37;;;;;;;6.40;1.47;;;;;;;-0.34;94.41;101734.19;5073588;28;20440;-72
2024/03/08 06:42:04;;;;;;;2.50;1.87;;;;;;;-0.30;93.22;101735.44;5072724;28;20540;-72
2024/03/08 06:44:32;;;;;;;4.37;1.47;;;;;;;-0.24;93.51;101743.63;5072973;28;21024;-72
2024/03/08 06:46:58;;;;;;;5.97;2.70;;;;;;;-0.17;93.64;101736.50;5073076;28;20448;-72
2024/03/08 06:49:26;;;;;;;11.80;2.23;;;;;;;-0.09;93.84;101736.28;5072618;28;21017;-71
2024/03/08 06:51:53;;;;;;;4.33;2.20;;;;;;;-0.12;94.93;101734.06;5072480;28;20460;-71
2024/03/08 06:54:21;;;;;;;7.37;3.13;;;;;;;-0.06;94.88;101735.91;5073204;28;20812;-72
2024/03/08 06:56:48;;;;;;;4.10;1.83;;;;;;;0.08;94.34;101726.91;5073296;28;20437;-72
2024/03/08 06:59:14;;;;;;;3.87;1.77;;;;;;;0.17;94.86;101733.66;5072916;28;21008;-72
2024/03/08 07:01:41;;;;;;;3.20;1.37;;;;;;;0.24;95.50;101731.84;5072722;28;20522;-71
2024/03/08 07:04:08;;;;;;;8.73;3.57;;;;;;;0.30;96.06;101732.84;5072394;28;20437;-71
2024/03/08 07:06:36;;;;;;;5.37;2.40;;;;;;;0.40;96.06;101729.78;5072717;28;20441;-71
2024/03/08 07:09:03;;;;;;;2.80;1.47;;;;;;;0.50;96.88;101728.38;5072869;28;20438;-71
2024/03/08 07:11:31;;;;;;;3.30;1.80;;;;;;;0.59;96.82;101730.81;5076359;28;20576;-71
2024/03/08 07:13:58;;;;;;;2.80;1.87;;;;;;;0.72;97.23;101728.13;5076100;28;20550;-71
2024/03/08 07:16:26;;;;;;;8.43;3.97;;;;;;;0.80;97.01;101729.75;5076147;28;20437;-72
2024/03/08 07:18:53;;;;;;;3.03;2.20;;;;;;;0.84;97.02;101728.31;5076321;28;20450;-72
2024/03/08 07:21:20;;;;;;;5.67;3.60;;;;;;;0.94;97.42;101720.72;5076074;28;20516;-72
2024/03/08 07:24:02;;;;;;;3.53;1.00;;;;;;;1.01;97.77;101729.50;5098292;22;20498;-66
2024/03/08 07:26:29;;;;;;;4.10;2.33;;;;;;;1.07;98.20;101726.03;5056778;28;20533;-67
2024/03/08 07:28:58;;;;;;;4.70;2.10;;;;;;;1.16;98.02;101724.75;5055732;28;20446;-66
2024/03/08 07:31:34;;;;;;;6.47;4.00;;;;;;;1.22;98.79;101723.09;5055920;28;20516;-66
2024/03/08 07:34:03;;;;;;;9.53;2.73;;;;;;;1.35;98.57;101715.03;5056079;28;20550;-66
2024/03/08 07:36:29;;;;;;;5.30;2.80;;;;;;;1.45;98.64;101712.72;5055625;28;20794;-66
2024/03/08 07:38:57;;;;;;;4.37;1.67;;;;;;;1.57;98.13;101710.22;5056064;28;20446;-66
2024/03/08 07:41:23;;;;;;;9.77;4.53;;;;;;;1.62;97.45;101706.91;5055773;28;20434;-66
2024/03/08 07:43:50;;;;;;;6.87;3.00;;;;;;;1.72;97.20;101701.91;5055747;28;20561;-66
2024/03/08 07:46:18;;;;;;;4.87;3.00;;;;;;;1.81;96.58;101703.28;5055818;28;20525;-66
2024/03/08 07:48:46;;;;;;;8.80;2.90;;;;;;;1.91;96.05;101700.97;5056022;28;20861;-66
2024/03/08 07:51:13;;;;;;;4.30;2.43;;;;;;;2.03;95.02;101701.09;5055557;28;20540;-66
2024/03/08 07:53:41;;;;;;;2.37;0.77;;;;;;;2.15;94.38;101696.69;5055504;28;20869;-65
2024/03/08 07:56:09;;;;;;;6.03;2.40;;;;;;;2.27;94.11;101707.50;5055449;28;20500;-65
2024/03/08 07:58:36;;;;;;;6.70;2.70;;;;;;;2.40;93.44;101698.56;5055839;28;20442;-65
2024/03/08 08:01:02;;;;;;;6.37;3.73;;;;;;;2.51;92.40;101700.50;5055831;28;20434;-65
2024/03/08 08:03:31;;;;;;;7.80;3.87;;;;;;;2.57;91.78;101698.78;5055320;28;20565;-64
2024/03/08 08:05:57;;;;;;;9.50;3.20;;;;;;;2.68;90.06;101684.72;5055039;28;20880;-65
2024/03/08 08:08:26;;;;;;;4.13;2.33;;;;;;;2.80;89.55;101692.84;5055744;28;20469;-65
2024/03/08 08:10:52;;;;;;;16.53;3.80;;;;;;;2.92;88.71;101685.69;5054816;28;20891;-65
2024/03/08 08:13:19;;;;;;;9.17;3.83;;;;;;;2.98;87.99;101688.28;5055162;28;20450;-65
2024/03/08 08:15:45;;;;;;;5.77;3.90;;;;;;;3.11;87.95;101683.84;5055163;28;20443;-64
2024/03/08 08:18:14;;;;;;;7.77;3.40;;;;;;;3.22;86.96;101686.56;5055412;28;20450;-64
2024/03/08 08:20:42;;;;;;;6.67;3.73;;;;;;;3.34;86.36;101683.13;5054286;28;20954;-64
2024/03/08 08:23:08;;;;;;;10.53;4.97;;;;;;;3.44;86.66;101678.06;5054161;28;20560;-64
2024/03/08 08:25:35;;;;;;;7.10;3.43;;;;;;;3.54;85.66;101684.53;5055461;28;20443;-64
2024/03/08 08:28:03;;;;;;;8.80;3.70;;;;;;;3.65;85.15;101677.56;5055124;28;20441;-64
2024/03/08 08:30:32;;;;;;;6.07;3.37;;;;;;;3.79;84.58;101675.50;5055413;28;20486;-64
2024/03/08 08:33:00;;;;;;;13.53;7.07;;;;;;;3.86;83.03;101678.09;5054652;28;20461;-64
2024/03/08 08:35:28;;;;;;;16.60;6.30;;;;;;;3.99;82.86;101675.22;5054955;28;20438;-64
2024/03/08 08:37:57;;;;;;;8.43;4.30;;;;;;;4.03;81.64;101669.16;5054907;28;20449;-64
2024/03/08 08:40:24;;;;;;;9.37;5.93;;;;;;;4.14;80.83;101672.09;5054502;28;20513;-64
2024/03/08 08:42:50;;;;;;;12.80;6.83;;;;;;;4.22;80.06;101669.88;5048282;28;20832;-64
2024/03/08 08:45:17;;;;;;;23.50;7.80;;;;;;;4.33;79.39;101665.56;5036024;28;20435;-65
2024/03/08 08:47:44;;;;;;;14.43;6.67;;;;;;;4.42;78.59;101660.69;5035124;28;20447;-64
2024/03/08 08:50:12;;;;;;;18.63;9.30;;;;;;;4.53;78.01;101667.91;5039692;28;20863;-64
2024/03/08 08:52:39;;;;;;;11.00;7.23;;;;;;;4.60;77.10;101667.78;5048863;28;20465;-64
2024/03/08 08:55:07;;;;;;;13.33;7.13;;;;;;;4.70;76.83;101658.09;5054319;28;20442;-64
2024/03/08 08:57:35;;;;;;;12.63;7.77;;;;;;;4.79;76.58;101659.38;5055184;28;20520;-64
2024/03/08 09:00:01;;;;;;;19.13;8.77;;;;;;;4.88;76.51;101648.28;5050532;28;20445;-64
2024/03/08 09:02:28;;;;;;;8.77;6.80;;;;;;;4.96;75.50;101651.41;5038585;28;20455;-64
2024/03/08 09:04:54;;;;;;;11.00;6.27;;;;;;;5.05;72.98;101646.50;5034071;28;20530;-64
2024/03/08 09:07:21;;;;;;;19.47;6.97;;;;;;;5.14;70.91;101650.44;5034291;28;20544;-64
2024/03/08 09:09:48;;;;;;;13.87;7.37;;;;;;;5.26;70.28;101647.69;5035772;28;20439;-64
2024/03/08 09:12:17;;;;;;;7.23;3.63;;;;;;;5.35;67.22;101650.81;5038901;28;20573;-64
2024/03/08 09:14:44;;;;;;;5.13;2.93;;;;;;;5.43;67.51;101645.06;5052409;28;20450;-64
2024/03/08 09:17:11;;;;;;;14.77;5.17;;;;;;;5.52;66.25;101646.31;5047232;28;20954;-64
2024/03/08 09:19:38;;;;;;;14.17;3.40;;;;;;;5.61;66.14;101635.97;5041814;28;20462;-64
2024/03/08 09:22:05;;;;;;;6.00;3.63;;;;;;;5.70;64.69;101639.91;5048406;28;20875;-64
2024/03/08 09:24:32;;;;;;;7.63;3.63;;;;;;;5.75;63.66;101648.88;5050114;28;20446;-64
2024/03/08 09:26:59;;;;;;;8.93;4.60;;;;;;;5.85;62.95;101645.56;5046377;28;20519;-64
2024/03/08 09:29:28;;;;;;;12.40;5.80;;;;;;;5.87;63.06;101640.75;5039661;28;20489;-64
2024/03/08 09:31:54;;;;;;;7.97;4.33;;;;;;;5.92;62.47;101634.66;5047401;28;20485;-64
2024/03/08 09:34:21;;;;;;;16.23;5.50;;;;;;;5.95;62.15;101628.81;5051859;28;20812;-63
2024/03/08 09:36:48;;;;;;;8.27;3.90;;;;;;;6.01;61.90;101630.50;5048170;28;20977;-63
2024/03/08 09:39:16;;;;;;;8.27;4.10;;;;;;;6.10;62.05;101629.03;5049895;28;20438;-64
2024/03/08 09:41:44;;;;;;;9.10;5.27;;;;;;;6.18;61.35;101625.13;5045546;28;20462;-64
2024/03/08 09:44:13;;;;;;;4.50;2.70;;;;;;;6.19;61.32;101619.50;5047130;28;20435;-64
2024/03/08 09:46:41;;;;;;;8.40;4.83;;;;;;;6.30;60.26;101626.66;5036779;28;20461;-65
2024/03/08 09:49:11;;;;;;;9.23;5.00;;;;;;;6.36;59.92;101626.75;5045287;28;20888;-65
2024/03/08 09:51:41;;;;;;;7.00;3.43;;;;;;;6.32;59.68;101624.53;5044168;28;20881;-64
2024/03/08 09:54:08;;;;;;;5.87;3.83;;;;;;;6.44;60.64;101620.94;5040665;28;20441;-64
2024/03/08 09:56:36;;;;;;;9.23;5.60;;;;;;;6.44;60.32;101604.78;5050445;28;20883;-64
2024/03/08 09:59:32;;;;;;;8.20;4.53;;;;;;;6.49;60.23;101616.44;5045107;28;20993;-64
2024/03/08 10:02:02;;;;;;;9.97;3.77;;;;;;;6.53;59.99;101606.00;5039769;28;20431;-64
2024/03/08 10:04:30;;;;;;;8.50;3.60;;;;;;;6.54;59.52;101602.22;5040553;28;20457;-64
2024/03/08 10:06:59;;;;;;;8.03;2.67;;;;;;;6.52;59.85;101597.09;5045615;28;20444;-64
2024/03/08 10:09:27;;;;;;;13.23;4.67;;;;;;;6.59;59.80;101596.91;5040810;28;20427;-64
2024/03/08 10:11:55;;;;;;;11.03;4.30;;;;;;;6.63;59.67;101599.94;5035944;28;20478;-64
2024/03/08 10:14:22;;;;;;;10.27;5.13;;;;;;;6.74;60.37;101601.69;5043880;28;20447;-64
2024/03/08 10:16:49;;;;;;;9.47;3.87;;;;;;;6.82;59.58;101593.19;5041218;28;20456;-64
2024/03/08 10:19:17;;;;;;;9.03;4.30;;;;;;;6.85;58.62;101589.97;5041343;28;20462;-64
2024/03/08 10:21:49;;;;;;;6.10;3.30;;;;;;;6.95;58.97;101594.66;5049031;28;20442;-64
2024/03/08 10:24:15;;;;;;;13.70;5.30;;;;;;;7.06;58.21;101588.34;5047259;28;20800;-64
2024/03/08 10:26:43;;;;;;;8.50;4.00;;;;;;;7.10;57.16;101585.97;5052801;28;20529;-64
2024/03/08 10:29:10;;;;;;;11.30;3.50;;;;;;;7.15;57.13;101578.72;5052860;28;20442;-64
2024/03/08 10:31:39;;;;;;;15.60;4.53;;;;;;;7.25;56.56;101583.41;5051708;28;20565;-64
2024/03/08 10:34:06;;;;;;;12.57;5.10;;;;;;;7.28;55.55;101583.72;5051220;28;20466;-64
2024/03/08 10:36:37;;;;;;;8.87;3.90;;;;;;;7.38;55.41;101579.50;5048830;28;20492;-64
2024/03/08 10:39:11;;;;;;;6.10;3.73;;;;;;;7.48;54.60;101582.28;5042138;28;20778;-64
2024/03/08 10:41:40;;;;;;;13.10;4.37;;;;;;;7.52;54.55;101578.81;5033235;28;20916;-66
2024/03/08 10:44:19;;;;;;;14.67;4.77;;;;;;;7.59;54.72;101570.53;5047028;28;20448;-65
2024/03/08 10:47:01;;;;;;;6.50;4.30;;;;;;;7.66;55.86;101568.44;5056896;28;20773;-64
2024/03/08 10:49:34;;;;;;;6.53;3.47;;;;;;;7.70;55.27;101563.34;5056334;28;20423;-64
2024/03/08 10:52:04;;;;;;;7.17;3.67;;;;;;;7.80;55.88;101566.94;5054042;28;20961;-65
2024/03/08 10:54:32;;;;;;;12.60;3.67;;;;;;;7.99;54.29;101563.84;5042201;28;20434;-64
2024/03/08 10:57:01;;;;;;;10.07;4.73;;;;;;;8.09;53.24;101562.00;5037285;28;20534;-65
2024/03/08 10:59:28;;;;;;;11.83;3.40;;;;;;;8.13;51.49;101558.78;5044313;28;20430;-65
2024/03/08 11:01:55;;;;;;;10.47;5.10;;;;;;;8.13;52.03;101559.59;5050443;28;20842;-65
2024/03/08 11:04:22;;;;;;;9.93;3.90;;;;;;;8.23;52.11;101553.44;5049659;28;20938;-64
2024/03/08 11:06:53;;;;;;;12.67;4.10;;;;;;;8.35;51.83;101557.56;5055641;28;20470;-64
2024/03/08 11:09:31;;;;;;;8.30;3.20;;;;;;;8.60;55.85;101545.31;5054789;28;20418;-64
2024/03/08 11:12:20;;;;;;;9.13;3.80;;;;;;;9.10;53.77;101543.84;5055603;28;20539;-64
2024/03/08 11:14:49;;;;;;;8.83;4.47;;;;;;;9.30;51.50;101545.78;5055877;28;20431;-64
2024/03/08 11:17:17;;;;;;;12.00;4.37;;;;;;;9.24;50.12;101534.13;5036767;28;20439;-64
2024/03/08 11:19:48;;;;;;;15.80;5.03;;;;;;;9.40;49.45;101531.44;5049512;28;20461;-64
2024/03/08 11:22:24;;;;;;;9.60;4.77;;;;;;;9.57;49.63;101532.00;5038835;28;20470;-64
2024/03/08 11:24:52;;;;;;;9.17;4.90;;;;;;;9.76;49.08;101524.94;5054794;28;20441;-65
2024/03/08 11:27:20;;;;;;;11.93;4.67;;;;;;;10.00;49.91;101514.34;5056270;28;20470;-64
2024/03/08 11:30:00;;;;;;;13.83;5.17;;;;;;;10.32;48.49;101534.88;5050324;28;20931;-64
2024/03/08 11:32:30;;;;;;;27.70;5.80;;;;;;;10.50;47.42;101523.44;5036406;28;20570;-64